Time;durP1;ratioP1;P1;durP2;ratioP2;P2;SDS_P1;SDS_P2;PMS_P1;PMS_P2;Temp;Humidity;BMP_temperature;BMP_pressure;BME280_temperature;BME280_humidity;BME280_pressure;Samples;Min_cycle;Max_cycle;Signal;HPM_P1;HPM_P2
2022/01/17 00:00:05;;;;;;;;;25.00;22.50;;;;;;;;5041462;28;45542;-94
2022/01/17 00:02:31;;;;;;;;;30.75;25.50;;;;;;;;5040400;28;47354;-94
2022/01/17 00:04:56;;;;;;;;;32.00;27.00;;;;;;;;5049611;28;45434;-94
2022/01/17 00:07:21;;;;;;;;;32.25;25.25;;;;;;;;5054406;28;45308;-94
2022/01/17 00:09:46;;;;;;;;;38.75;29.50;;;;;;;;5033381;28;45366;-94
2022/01/17 00:12:12;;;;;;;;;29.75;25.75;;;;;;;;5027278;28;47037;-94
2022/01/17 00:14:41;;;;;;;;;27.75;25.25;;;;;;;;5019228;28;44841;-94
2022/01/17 00:19:46;;;;;;;;;36.00;28.75;;;;;;;;5069285;28;45335;-95
2022/01/17 00:22:13;;;;;;;;;30.75;24.00;;;;;;;;5070856;28;47451;-93
2022/01/17 00:24:38;;;;;;;;;32.75;28.50;;;;;;;;5060224;28;45696;-94
2022/01/17 00:27:03;;;;;;;;;31.00;27.75;;;;;;;;5063500;28;44800;-94
2022/01/17 00:29:29;;;;;;;;;33.50;27.50;;;;;;;;5076986;28;45490;-94
2022/01/17 00:31:54;;;;;;;;;27.00;25.00;;;;;;;;5055300;28;47509;-94
2022/01/17 00:34:19;;;;;;;;;32.50;26.75;;;;;;;;5054405;28;44772;-94
2022/01/17 00:36:47;;;;;;;;;27.50;25.50;;;;;;;;5054621;28;45445;-94
2022/01/17 00:39:12;;;;;;;;;29.25;26.75;;;;;;;;5027722;28;45360;-94
2022/01/17 00:41:37;;;;;;;;;20.50;20.50;;;;;;;;5069450;28;46892;-94
2022/01/17 00:44:03;;;;;;;;;33.25;24.50;;;;;;;;5042743;28;46072;-95
2022/01/17 00:46:29;;;;;;;;;28.75;26.50;;;;;;;;5064444;28;45442;-95
2022/01/17 00:48:54;;;;;;;;;36.50;26.75;;;;;;;;5070638;28;45525;-95
2022/01/17 00:51:21;;;;;;;;;28.00;23.25;;;;;;;;5063321;27;48376;-94
2022/01/17 00:53:46;;;;;;;;;27.50;25.00;;;;;;;;5087805;27;44959;-94
2022/01/17 00:56:12;;;;;;;;;29.50;25.00;;;;;;;;5087123;27;44833;-95
2022/01/17 00:58:37;;;;;;;;;26.75;26.50;;;;;;;;5086928;27;45162;-95
2022/01/17 01:01:02;;;;;;;;;24.50;24.50;;;;;;;;5083833;27;48371;-94
2022/01/17 01:03:27;;;;;;;;;26.00;24.50;;;;;;;;5059175;28;45393;-94
2022/01/17 01:05:56;;;;;;;;;24.75;24.75;;;;;;;;5068414;28;44770;-95
2022/01/17 01:08:21;;;;;;;;;31.25;26.00;;;;;;;;5040927;28;45444;-94
2022/01/17 01:10:46;;;;;;;;;25.00;23.50;;;;;;;;5066174;28;48121;-94
2022/01/17 01:13:11;;;;;;;;;34.00;27.75;;;;;;;;5069757;28;45402;-94
2022/01/17 01:18:14;;;;;;;;;32.25;28.25;;;;;;;;5065246;28;45339;-94
2022/01/17 01:28:33;;;;;;;;;28.75;28.50;;;;;;;;5083732;27;45272;-95
2022/01/17 01:31:01;;;;;;;;;35.25;27.75;;;;;;;;5064585;28;47011;-94
2022/01/17 01:33:31;;;;;;;;;30.00;29.75;;;;;;;;5067146;28;45485;-94
2022/01/17 01:36:02;;;;;;;;;33.25;29.75;;;;;;;;5065496;28;45494;-94
2022/01/17 01:38:29;;;;;;;;;32.00;28.25;;;;;;;;5066915;27;46626;-95
2022/01/17 01:40:54;;;;;;;;;32.75;30.00;;;;;;;;5056531;28;48372;-94
2022/01/17 01:43:19;;;;;;;;;33.50;31.25;;;;;;;;5082609;28;45256;-95
2022/01/17 01:45:48;;;;;;;;;35.00;29.25;;;;;;;;5064762;28;45576;-95
2022/01/17 01:48:14;;;;;;;;;29.75;25.25;;;;;;;;5066415;28;45281;-95
2022/01/17 01:50:39;;;;;;;;;29.00;27.75;;;;;;;;5067558;27;47246;-94
2022/01/17 01:53:04;;;;;;;;;31.50;28.75;;;;;;;;5071257;28;45519;-95
2022/01/17 01:55:30;;;;;;;;;25.50;25.50;;;;;;;;5088637;27;45603;-94
2022/01/17 01:57:56;;;;;;;;;35.00;28.00;;;;;;;;5092519;27;45477;-95
2022/01/17 02:00:24;;;;;;;;;30.00;26.25;;;;;;;;5076701;28;47351;-95
2022/01/17 02:02:49;;;;;;;;;25.25;23.50;;;;;;;;5048750;28;45291;-95
2022/01/17 02:05:15;;;;;;;;;27.75;24.00;;;;;;;;5065261;28;45799;-95
2022/01/17 02:07:44;;;;;;;;;30.33;26.33;;;;;;;;5064450;28;45276;-94
2022/01/17 02:10:09;;;;;;;;;35.00;30.50;;;;;;;;5032999;28;47425;-94
2022/01/17 02:12:35;;;;;;;;;31.50;28.50;;;;;;;;5057898;28;45312;-94
2022/01/17 02:15:00;;;;;;;;;32.25;30.50;;;;;;;;5063883;28;48068;-94
2022/01/17 02:17:26;;;;;;;;;25.33;20.00;;;;;;;;5072799;28;45717;-93
2022/01/17 02:19:53;;;;;;;;;30.75;29.75;;;;;;;;5051183;28;47091;-94
2022/01/17 02:22:25;;;;;;;;;32.25;28.50;;;;;;;;5063933;28;45866;-94
2022/01/17 02:24:51;;;;;;;;;38.75;33.75;;;;;;;;5043018;28;46822;-95
2022/01/17 02:27:16;;;;;;;;;30.00;24.50;;;;;;;;5063764;28;45474;-95
2022/01/17 02:29:41;;;;;;;;;37.50;30.50;;;;;;;;5074305;28;45449;-94
2022/01/17 02:32:08;;;;;;;;;32.75;28.25;;;;;;;;5090486;28;45358;-95
2022/01/17 02:34:38;;;;;;;;;33.00;27.75;;;;;;;;5071747;28;45534;-94
2022/01/17 02:37:04;;;;;;;;;38.25;33.75;;;;;;;;5068456;28;45510;-94
2022/01/17 02:39:29;;;;;;;;;35.75;30.50;;;;;;;;5054050;28;46069;-95
2022/01/17 02:41:54;;;;;;;;;38.00;31.00;;;;;;;;5073435;27;45420;-94
2022/01/17 02:44:19;;;;;;;;;39.75;31.00;;;;;;;;5068060;28;45421;-95
2022/01/17 02:46:44;;;;;;;;;39.50;34.75;;;;;;;;5068085;28;45505;-94
2022/01/17 02:49:10;;;;;;;;;33.75;32.50;;;;;;;;5071337;28;47066;-94
2022/01/17 02:51:36;;;;;;;;;40.25;34.00;;;;;;;;5051578;28;45474;-95
2022/01/17 02:54:02;;;;;;;;;38.25;31.00;;;;;;;;5039009;28;45392;-94
2022/01/17 02:56:28;;;;;;;;;34.00;30.75;;;;;;;;5054798;27;45497;-93
2022/01/17 02:58:54;;;;;;;;;36.75;30.00;;;;;;;;5056650;28;47086;-94
2022/01/17 03:01:21;;;;;;;;;34.25;31.50;;;;;;;;5057884;28;45832;-94
2022/01/17 03:03:47;;;;;;;;;31.50;28.25;;;;;;;;5047497;28;45282;-95
2022/01/17 03:06:13;;;;;;;;;38.50;31.50;;;;;;;;5038209;28;45605;-94
2022/01/17 03:08:39;;;;;;;;;35.00;32.50;;;;;;;;5053950;28;47947;-95
2022/01/17 03:11:07;;;;;;;;;35.75;31.00;;;;;;;;5038045;28;45497;-94
2022/01/17 03:13:35;;;;;;;;;31.50;28.75;;;;;;;;5073315;28;45769;-94
2022/01/17 03:16:02;;;;;;;;;36.75;27.75;;;;;;;;5057197;28;45484;-95
2022/01/17 03:18:28;;;;;;;;;32.25;27.50;;;;;;;;5049995;28;47285;-94
2022/01/17 03:20:54;;;;;;;;;34.50;32.00;;;;;;;;5056766;27;46325;-95
2022/01/17 03:23:19;;;;;;;;;37.00;31.00;;;;;;;;5058149;28;45441;-94
2022/01/17 03:25:45;;;;;;;;;28.75;24.75;;;;;;;;5056483;28;45409;-95
2022/01/17 03:28:10;;;;;;;;;33.25;28.50;;;;;;;;5074394;27;47429;-94
2022/01/17 03:30:36;;;;;;;;;39.50;32.75;;;;;;;;5068686;28;45792;-94
2022/01/17 03:33:02;;;;;;;;;36.75;29.50;;;;;;;;5065551;28;45603;-94
2022/01/17 03:35:27;;;;;;;;;39.50;30.00;;;;;;;;5066071;28;45281;-95
2022/01/17 03:37:53;;;;;;;;;41.25;30.75;;;;;;;;5045506;28;46843;-95
2022/01/17 03:40:18;;;;;;;;;30.00;28.00;;;;;;;;5042313;28;45309;-95
2022/01/17 03:42:43;;;;;;;;;36.25;31.00;;;;;;;;5046673;28;45387;-95
2022/01/17 03:45:09;;;;;;;;;34.75;32.00;;;;;;;;5057806;28;45565;-95
2022/01/17 03:47:35;;;;;;;;;37.75;33.25;;;;;;;;5057404;27;48327;-95
2022/01/17 03:50:00;;;;;;;;;35.75;31.00;;;;;;;;5057467;28;45208;-94
2022/01/17 03:52:25;;;;;;;;;40.00;28.50;;;;;;;;5054396;28;45437;-95
2022/01/17 03:54:51;;;;;;;;;34.00;28.50;;;;;;;;5059613;28;45466;-95
2022/01/17 03:57:16;;;;;;;;;33.50;31.50;;;;;;;;5070200;27;45310;-94
2022/01/17 03:59:41;;;;;;;;;34.00;33.50;;;;;;;;5049838;28;45648;-95
2022/01/17 04:02:06;;;;;;;;;43.25;34.25;;;;;;;;5037164;28;45420;-95
2022/01/17 04:04:31;;;;;;;;;31.50;29.00;;;;;;;;5050619;28;45466;-95
2022/01/17 04:06:57;;;;;;;;;36.00;33.00;;;;;;;;5056397;28;46902;-95
2022/01/17 04:09:22;;;;;;;;;34.75;30.25;;;;;;;;5056801;28;45439;-95
2022/01/17 04:11:47;;;;;;;;;38.25;31.00;;;;;;;;5059213;27;45389;-95
2022/01/17 04:14:12;;;;;;;;;29.50;27.50;;;;;;;;5058759;28;45236;-95
2022/01/17 04:16:38;;;;;;;;;35.50;30.75;;;;;;;;5057341;28;46991;-95
2022/01/17 04:19:03;;;;;;;;;35.25;28.00;;;;;;;;5048286;28;45435;-95
2022/01/17 04:21:33;;;;;;;;;33.75;31.50;;;;;;;;5064318;28;45744;-95
2022/01/17 04:23:58;;;;;;;;;34.50;28.75;;;;;;;;5046718;28;45934;-94
2022/01/17 04:26:24;;;;;;;;;36.75;30.50;;;;;;;;5046015;28;47376;-95
2022/01/17 04:28:49;;;;;;;;;36.75;31.25;;;;;;;;5093335;27;45330;-95
2022/01/17 04:31:14;;;;;;;;;35.25;29.00;;;;;;;;5058058;28;45345;-95
2022/01/17 04:33:40;;;;;;;;;38.00;32.75;;;;;;;;5071421;27;45534;-94
2022/01/17 04:36:07;;;;;;;;;41.00;34.00;;;;;;;;5097247;27;45325;-95
2022/01/17 04:38:33;;;;;;;;;35.75;30.75;;;;;;;;5110042;27;45299;-95
2022/01/17 04:41:04;;;;;;;;;44.00;37.75;;;;;;;;5084150;27;44854;-95
2022/01/17 04:46:18;;;;;;;;;40.00;34.75;;;;;;;;5010124;28;45355;-95
2022/01/17 04:48:44;;;;;;;;;35.25;34.25;;;;;;;;5001424;28;45426;-95
2022/01/17 04:51:09;;;;;;;;;29.00;28.25;;;;;;;;4986963;28;45404;-95
2022/01/17 04:53:34;;;;;;;;;38.50;31.75;;;;;;;;4957559;28;45516;-95
2022/01/17 04:56:00;;;;;;;;;38.00;29.75;;;;;;;;4976411;28;47188;-94
2022/01/17 04:58:25;;;;;;;;;38.25;31.50;;;;;;;;4975633;28;46503;-94
2022/01/17 05:00:50;;;;;;;;;38.75;35.25;;;;;;;;4983219;28;45466;-95
2022/01/17 05:03:16;;;;;;;;;33.50;30.75;;;;;;;;4966283;28;45440;-94
2022/01/17 05:05:42;;;;;;;;;33.75;29.25;;;;;;;;4993419;28;49023;-94
2022/01/17 05:08:07;;;;;;;;;38.25;34.50;;;;;;;;4990377;28;45627;-94
2022/01/17 05:10:32;;;;;;;;;47.50;36.00;;;;;;;;4986633;28;45511;-95
2022/01/17 05:12:57;;;;;;;;;34.25;31.25;;;;;;;;4998816;28;45326;-95
2022/01/17 05:15:30;;;;;;;;;38.00;33.00;;;;;;;;4999934;28;47238;-94
2022/01/17 05:18:01;;;;;;;;;34.50;29.75;;;;;;;;5003273;28;45579;-94
2022/01/17 05:20:27;;;;;;;;;36.50;32.25;;;;;;;;4997301;28;45323;-94
2022/01/17 05:22:53;;;;;;;;;33.25;29.50;;;;;;;;5018584;28;45495;-94
2022/01/17 05:25:18;;;;;;;;;41.00;33.75;;;;;;;;5055739;28;47099;-94
2022/01/17 05:27:43;;;;;;;;;29.50;28.75;;;;;;;;5059505;28;45604;-95
2022/01/17 05:30:11;;;;;;;;;33.50;29.25;;;;;;;;5059141;28;45423;-93
2022/01/17 05:32:36;;;;;;;;;40.00;31.50;;;;;;;;5059269;28;45487;-95
2022/01/17 05:35:02;;;;;;;;;31.75;29.50;;;;;;;;5059156;28;47643;-95
2022/01/17 05:37:28;;;;;;;;;34.25;28.75;;;;;;;;5059084;28;45555;-94
2022/01/17 05:39:53;;;;;;;;;41.75;31.25;;;;;;;;5050745;28;45528;-93
2022/01/17 05:42:18;;;;;;;;;36.00;29.00;;;;;;;;5047843;28;45595;-94
2022/01/17 05:44:47;;;;;;;;;33.75;27.50;;;;;;;;5060289;28;48090;-93
2022/01/17 05:47:14;;;;;;;;;35.00;30.25;;;;;;;;5060743;28;45850;-93
2022/01/17 05:49:39;;;;;;;;;28.50;27.50;;;;;;;;5041124;28;45459;-93
2022/01/17 05:52:05;;;;;;;;;29.75;26.25;;;;;;;;5050425;28;45533;-92
2022/01/17 05:54:30;;;;;;;;;37.25;28.00;;;;;;;;5057003;28;46997;-93
2022/01/17 05:56:56;;;;;;;;;31.75;27.75;;;;;;;;5046688;28;45435;-94
2022/01/17 05:59:21;;;;;;;;;36.25;28.75;;;;;;;;5040495;28;45688;-94
2022/01/17 06:01:46;;;;;;;;;39.25;29.75;;;;;;;;5067516;28;45380;-95
2022/01/17 06:04:11;;;;;;;;;24.75;22.50;;;;;;;;5081081;28;45613;-94
2022/01/17 06:06:37;;;;;;;;;30.75;30.00;;;;;;;;5085322;28;45381;-93
2022/01/17 06:09:02;;;;;;;;;36.50;28.25;;;;;;;;5056892;28;45379;-94
2022/01/17 06:11:35;;;;;;;;;37.25;27.75;;;;;;;;5069532;28;45327;-94
2022/01/17 06:14:02;;;;;;;;;31.00;27.00;;;;;;;;5059423;28;47443;-93
2022/01/17 06:16:27;;;;;;;;;36.00;30.00;;;;;;;;5055633;28;45633;-93
2022/01/17 06:18:52;;;;;;;;;32.75;26.25;;;;;;;;5041203;28;45527;-94
2022/01/17 06:21:18;;;;;;;;;29.50;26.00;;;;;;;;5040717;28;45451;-93
2022/01/17 06:23:43;;;;;;;;;30.75;28.50;;;;;;;;5052459;27;48253;-93
2022/01/17 06:26:08;;;;;;;;;30.25;27.25;;;;;;;;5076724;28;45449;-93
2022/01/17 06:28:34;;;;;;;;;33.00;28.00;;;;;;;;5056538;28;45645;-93
2022/01/17 06:30:59;;;;;;;;;34.50;28.75;;;;;;;;5058124;28;45372;-93
2022/01/17 06:33:24;;;;;;;;;37.25;30.25;;;;;;;;5058297;27;48212;-93
2022/01/17 06:35:50;;;;;;;;;33.00;27.50;;;;;;;;5058142;28;45698;-93
2022/01/17 06:38:15;;;;;;;;;37.75;31.00;;;;;;;;5058345;28;45447;-93
2022/01/17 06:40:41;;;;;;;;;29.00;26.75;;;;;;;;5054677;28;45403;-93
2022/01/17 06:43:08;;;;;;;;;28.25;26.25;;;;;;;;5071627;27;46285;-94
2022/01/17 06:45:34;;;;;;;;;33.50;28.25;;;;;;;;5049990;28;45735;-94
2022/01/17 06:48:00;;;;;;;;;33.25;25.25;;;;;;;;5045420;28;45495;-94
2022/01/17 06:50:25;;;;;;;;;35.25;30.25;;;;;;;;5067182;28;45273;-94
2022/01/17 06:52:50;;;;;;;;;41.75;31.75;;;;;;;;5062859;28;46814;-93
2022/01/17 06:55:16;;;;;;;;;44.75;34.25;;;;;;;;5064105;28;45244;-93
2022/01/17 06:57:41;;;;;;;;;36.75;31.00;;;;;;;;5066883;28;45335;-93
2022/01/17 07:00:09;;;;;;;;;44.50;34.75;;;;;;;;5059273;28;45591;-94
2022/01/17 07:02:35;;;;;;;;;36.50;27.75;;;;;;;;5053137;27;45624;-94
2022/01/17 07:05:01;;;;;;;;;36.75;31.00;;;;;;;;5065275;28;45348;-94
2022/01/17 07:07:26;;;;;;;;;40.75;36.00;;;;;;;;5053795;28;45258;-93
2022/01/17 07:09:51;;;;;;;;;42.50;34.75;;;;;;;;5057833;28;45669;-94
2022/01/17 07:12:16;;;;;;;;;43.25;33.00;;;;;;;;5074394;28;45457;-94
2022/01/17 07:14:42;;;;;;;;;41.00;30.25;;;;;;;;5073278;28;45326;-94
2022/01/17 07:17:11;;;;;;;;;36.25;33.00;;;;;;;;5054870;28;45396;-94
2022/01/17 07:19:37;;;;;;;;;44.75;36.00;;;;;;;;5056256;28;45419;-94
2022/01/17 07:22:03;;;;;;;;;31.00;26.00;;;;;;;;5057028;28;48012;-93
2022/01/17 07:24:28;;;;;;;;;34.50;30.50;;;;;;;;5056528;28;45615;-94
2022/01/17 07:26:53;;;;;;;;;35.25;29.00;;;;;;;;5056620;28;45498;-92
2022/01/17 07:29:18;;;;;;;;;35.50;30.00;;;;;;;;5056631;28;45492;-93
2022/01/17 07:31:44;;;;;;;;;42.00;34.00;;;;;;;;5056937;28;47239;-93
2022/01/17 07:34:09;;;;;;;;;43.00;33.25;;;;;;;;5056347;28;45881;-95
2022/01/17 07:36:34;;;;;;;;;41.50;35.00;;;;;;;;5056678;28;45490;-92
2022/01/17 07:38:59;;;;;;;;;48.25;39.00;;;;;;;;5055256;28;45439;-94
2022/01/17 07:41:25;;;;;;;;;46.25;35.25;;;;;;;;5057475;28;48217;-94
2022/01/17 07:43:52;;;;;;;;;42.00;34.75;;;;;;;;5104978;27;45312;-94
2022/01/17 07:46:25;;;;;;;;;38.00;34.50;;;;;;;;5075939;28;44804;-95
2022/01/17 07:49:10;;;;;;;;;40.50;36.00;;;;;;;;5063440;28;45506;-94
2022/01/17 07:51:37;;;;;;;;;32.50;25.75;;;;;;;;5053483;28;47569;-94
2022/01/17 07:54:03;;;;;;;;;41.50;33.00;;;;;;;;5057567;28;45577;-94
2022/01/17 07:56:29;;;;;;;;;41.75;36.25;;;;;;;;5073141;28;45497;-94
2022/01/17 07:58:56;;;;;;;;;40.25;29.75;;;;;;;;5050497;28;47424;-93
2022/01/17 08:01:21;;;;;;;;;33.50;29.25;;;;;;;;5056264;28;47537;-92
2022/01/17 08:03:47;;;;;;;;;34.25;32.25;;;;;;;;5070844;28;45414;-93
2022/01/17 08:06:12;;;;;;;;;35.50;32.00;;;;;;;;5053822;28;45709;-95
2022/01/17 08:08:37;;;;;;;;;40.00;36.25;;;;;;;;5056019;28;45537;-93
2022/01/17 08:11:02;;;;;;;;;31.00;29.50;;;;;;;;5064624;28;47538;-95
2022/01/17 08:13:27;;;;;;;;;37.25;28.25;;;;;;;;5057912;28;45636;-95
2022/01/17 08:15:53;;;;;;;;;37.00;29.25;;;;;;;;5055841;28;45391;-94
2022/01/17 08:18:18;;;;;;;;;34.50;28.50;;;;;;;;5058605;28;45477;-93
2022/01/17 08:20:43;;;;;;;;;40.75;32.00;;;;;;;;5060912;28;47284;-95
2022/01/17 08:23:09;;;;;;;;;37.00;32.50;;;;;;;;5064503;28;45697;-93
2022/01/17 08:25:35;;;;;;;;;31.75;26.50;;;;;;;;5060633;28;45309;-94
2022/01/17 08:28:00;;;;;;;;;32.75;28.25;;;;;;;;5069027;28;45237;-95
2022/01/17 08:30:25;;;;;;;;;34.75;32.50;;;;;;;;5061452;28;47178;-95
2022/01/17 08:32:51;;;;;;;;;31.25;27.00;;;;;;;;5062197;27;45486;-94
2022/01/17 08:35:17;;;;;;;;;38.25;29.50;;;;;;;;5062835;28;45396;-94
2022/01/17 08:37:42;;;;;;;;;32.50;30.50;;;;;;;;5051294;28;45467;-94
2022/01/17 08:40:08;;;;;;;;;39.00;30.00;;;;;;;;5057272;28;47938;-94
2022/01/17 08:42:36;;;;;;;;;36.50;32.00;;;;;;;;5050501;28;45433;-94
2022/01/17 08:45:02;;;;;;;;;31.00;28.50;;;;;;;;5056457;28;49330;-94
2022/01/17 08:47:27;;;;;;;;;40.50;31.25;;;;;;;;5066847;28;45464;-95
2022/01/17 08:49:52;;;;;;;;;36.75;31.00;;;;;;;;5065616;28;48075;-94
2022/01/17 08:52:19;;;;;;;;;43.00;29.25;;;;;;;;5062582;28;45312;-94
2022/01/17 08:54:44;;;;;;;;;36.00;31.00;;;;;;;;5053302;28;45362;-95
2022/01/17 08:57:10;;;;;;;;;39.00;30.75;;;;;;;;5043769;28;45622;-95
2022/01/17 08:59:35;;;;;;;;;38.25;32.25;;;;;;;;5079823;28;45413;-94
2022/01/17 09:02:00;;;;;;;;;33.25;25.00;;;;;;;;5061196;28;45405;-95
2022/01/17 09:04:25;;;;;;;;;33.75;29.00;;;;;;;;5054242;28;45836;-94
2022/01/17 09:06:51;;;;;;;;;35.50;28.25;;;;;;;;5050812;28;46052;-94
2022/01/17 09:09:16;;;;;;;;;42.75;32.50;;;;;;;;5052605;28;47216;-95
2022/01/17 09:11:42;;;;;;;;;46.50;36.50;;;;;;;;5051180;27;45505;-95
2022/01/17 09:14:07;;;;;;;;;39.75;33.00;;;;;;;;5057519;28;45720;-94
2022/01/17 09:16:33;;;;;;;;;35.75;28.75;;;;;;;;5061710;28;45524;-94
2022/01/17 09:19:00;;;;;;;;;35.75;32.75;;;;;;;;5050245;28;48408;-95
2022/01/17 09:21:25;;;;;;;;;35.75;31.50;;;;;;;;5053347;28;45759;-94
2022/01/17 09:23:51;;;;;;;;;34.50;25.75;;;;;;;;5059196;28;45981;-95
2022/01/17 09:26:18;;;;;;;;;37.50;30.00;;;;;;;;5053988;28;45363;-95
2022/01/17 09:28:45;;;;;;;;;38.00;35.00;;;;;;;;5058541;28;47246;-94
2022/01/17 09:31:10;;;;;;;;;34.00;31.00;;;;;;;;5058932;28;46047;-94
2022/01/17 09:33:35;;;;;;;;;38.00;33.50;;;;;;;;5053875;28;45376;-95
2022/01/17 09:36:01;;;;;;;;;38.00;32.00;;;;;;;;5056252;28;45515;-95
2022/01/17 09:38:26;;;;;;;;;35.75;32.00;;;;;;;;5062380;28;47039;-95
2022/01/17 09:40:51;;;;;;;;;36.00;29.50;;;;;;;;5055226;28;45377;-94
2022/01/17 09:43:17;;;;;;;;;41.00;30.50;;;;;;;;5048274;28;45371;-95
2022/01/17 09:45:42;;;;;;;;;40.75;32.25;;;;;;;;5053317;28;45387;-95
2022/01/17 09:48:09;;;;;;;;;39.75;32.50;;;;;;;;5054448;28;46226;-96
2022/01/17 09:50:45;;;;;;;;;34.75;31.75;;;;;;;;5058731;28;45493;-95
2022/01/17 09:53:14;;;;;;;;;41.00;33.00;;;;;;;;5057166;28;45546;-96
2022/01/17 09:55:40;;;;;;;;;43.00;33.50;;;;;;;;5055963;27;45375;-95
2022/01/17 09:58:06;;;;;;;;;36.00;33.00;;;;;;;;5047944;28;47085;-94
2022/01/17 10:00:33;;;;;;;;;38.75;33.00;;;;;;;;5073732;28;45248;-96
2022/01/17 10:03:00;;;;;;;;;34.25;30.25;;;;;;;;5079085;27;45351;-96
2022/01/17 10:05:26;;;;;;;;;43.50;32.50;;;;;;;;5066639;27;45390;-95
2022/01/17 10:07:54;;;;;;;;;38.75;29.75;;;;;;;;5069410;28;45440;-95
2022/01/17 10:10:38;;;;;;;;;36.25;32.75;;;;;;;;5055460;28;45508;-95
2022/01/17 10:13:09;;;;;;;;;42.75;34.50;;;;;;;;5052797;28;45515;-95
2022/01/17 10:15:46;;;;;;;;;33.50;29.25;;;;;;;;5048281;28;45454;-94
2022/01/17 10:18:24;;;;;;;;;45.25;36.00;;;;;;;;5061597;28;48100;-95
2022/01/17 10:20:55;;;;;;;;;42.00;34.50;;;;;;;;5051452;28;46083;-94
2022/01/17 10:23:40;;;;;;;;;30.25;29.00;;;;;;;;5064076;28;45596;-95
2022/01/17 10:26:14;;;;;;;;;39.50;34.25;;;;;;;;5076482;28;45351;-93
2022/01/17 10:34:53;;;;;;;;;45.00;34.25;;;;;;;;5085836;27;45198;-94
2022/01/17 10:36:57;;;;;;;;;35.75;28.25;;;;;;;;5075697;28;45499;-95
2022/01/17 10:39:22;;;;;;;;;41.00;35.50;;;;;;;;5077553;28;46143;-95
2022/01/17 10:41:48;;;;;;;;;43.00;37.00;;;;;;;;5069853;28;45930;-95
2022/01/17 10:44:36;;;;;;;;;35.25;31.75;;;;;;;;5058544;28;45485;-94
2022/01/17 10:47:18;;;;;;;;;35.75;33.25;;;;;;;;5063025;28;45281;-95
2022/01/17 10:49:47;;;;;;;;;35.75;29.00;;;;;;;;5051776;28;48183;-95
2022/01/17 10:52:25;;;;;;;;;40.75;33.50;;;;;;;;5051737;28;45761;-95
2022/01/17 10:54:54;;;;;;;;;37.50;32.50;;;;;;;;5056712;28;45454;-95
2022/01/17 10:57:20;;;;;;;;;42.00;35.50;;;;;;;;5048230;28;45585;-95
2022/01/17 10:59:45;;;;;;;;;44.00;37.25;;;;;;;;5053381;28;48051;-96
2022/01/17 11:02:15;;;;;;;;;41.25;36.50;;;;;;;;5045157;28;45437;-95
2022/01/17 11:04:41;;;;;;;;;46.00;36.00;;;;;;;;5066370;28;45385;-95
2022/01/17 11:07:08;;;;;;;;;42.75;36.00;;;;;;;;5049239;28;45517;-95
2022/01/17 11:09:40;;;;;;;;;34.75;28.50;;;;;;;;5050742;28;48487;-95
2022/01/17 11:12:10;;;;;;;;;32.00;28.00;;;;;;;;5053795;28;45532;-94
2022/01/17 11:14:38;;;;;;;;;31.50;28.75;;;;;;;;5056249;28;45376;-94
2022/01/17 11:17:21;;;;;;;;;46.75;38.25;;;;;;;;5066820;28;45445;-95
2022/01/17 11:22:47;;;;;;;;;37.75;36.00;;;;;;;;4995102;28;45535;-95
2022/01/17 11:25:14;;;;;;;;;40.33;35.67;;;;;;;;4998460;28;45400;-94
2022/01/17 11:27:40;;;;;;;;;38.33;31.67;;;;;;;;4988831;28;45374;-95
2022/01/17 11:30:06;;;;;;;;;33.67;31.00;;;;;;;;5018436;28;46996;-93
2022/01/17 11:32:31;;;;;;;;;37.00;30.67;;;;;;;;5018621;28;45425;-96
2022/01/17 11:34:58;;;;;;;;;42.67;32.00;;;;;;;;4998966;28;45061;-96
2022/01/17 11:37:24;;;;;;;;;41.67;32.33;;;;;;;;4978658;28;45456;-95
2022/01/17 11:39:50;;;;;;;;;33.33;27.67;;;;;;;;4972552;28;49798;-95
2022/01/17 11:42:34;;;;;;;;;30.33;26.00;;;;;;;;4977278;28;45508;-94
2022/01/17 11:44:59;;;;;;;;;29.67;24.67;;;;;;;;4961568;28;46022;-94
2022/01/17 11:47:43;;;;;;;;;35.00;33.33;;;;;;;;4998098;28;45484;-95
2022/01/17 11:50:26;;;;;;;;;39.00;36.00;;;;;;;;4972878;28;48030;-95
2022/01/17 11:52:52;;;;;;;;;30.67;29.67;;;;;;;;4978224;28;46375;-94
2022/01/17 11:55:35;;;;;;;;;35.33;30.00;;;;;;;;4976621;28;45366;-96
2022/01/17 11:58:21;;;;;;;;;39.00;32.25;;;;;;;;5036857;28;45251;-94
2022/01/17 12:00:46;;;;;;;;;38.33;32.00;;;;;;;;5063407;28;46434;-96
2022/01/17 12:03:16;;;;;;;;;37.67;34.00;;;;;;;;5037091;28;45285;-96
2022/01/17 12:05:42;;;;;;;;;44.75;34.50;;;;;;;;5032589;28;45468;-96
2022/01/17 12:08:09;;;;;;;;;39.50;35.00;;;;;;;;5044704;28;45441;-96
2022/01/17 12:10:42;;;;;;;;;47.00;35.50;;;;;;;;5037721;28;46926;-96
2022/01/17 12:13:11;;;;;;;;;45.00;37.25;;;;;;;;5035708;28;45996;-96
2022/01/17 12:18:42;;;;;;;;;42.50;36.75;;;;;;;;4968184;28;45465;-96
2022/01/17 12:21:17;;;;;;;;;46.00;36.50;;;;;;;;4958809;28;47160;-96
2022/01/17 12:23:42;;;;;;;;;48.00;37.75;;;;;;;;4964048;28;45321;-96
2022/01/17 12:26:27;;;;;;;;;46.25;35.50;;;;;;;;4967672;28;45247;-96
2022/01/17 12:28:53;;;;;;;;;43.25;37.50;;;;;;;;4964230;28;45322;-96
2022/01/17 12:31:37;;;;;;;;;39.50;35.25;;;;;;;;4962332;28;48444;-96
2022/01/17 12:34:24;;;;;;;;;51.50;33.25;;;;;;;;4962559;28;45730;-94
2022/01/17 12:36:50;;;;;;;;;40.00;33.67;;;;;;;;4957533;28;45542;-96
2022/01/17 12:39:17;;;;;;;;;44.50;28.75;;;;;;;;4957114;28;45443;-96
2022/01/17 12:41:44;;;;;;;;;45.00;38.00;;;;;;;;4953041;28;47506;-96
2022/01/17 12:44:20;;;;;;;;;40.50;35.25;;;;;;;;4962358;28;45723;-93
2022/01/17 12:46:47;;;;;;;;;38.00;31.33;;;;;;;;4962056;28;45342;-94
2022/01/17 12:49:12;;;;;;;;;43.33;35.33;;;;;;;;4965013;28;45359;-95
2022/01/17 12:51:44;;;;;;;;;42.00;35.25;;;;;;;;4956611;28;47852;-95
2022/01/17 12:54:15;;;;;;;;;43.75;35.25;;;;;;;;5000379;28;45799;-95
2022/01/17 12:56:42;;;;;;;;;48.25;38.25;;;;;;;;5052711;28;45514;-95
2022/01/17 12:59:09;;;;;;;;;42.50;31.50;;;;;;;;5079799;28;45418;-95
2022/01/17 13:01:34;;;;;;;;;47.00;34.50;;;;;;;;5055545;28;47024;-95
2022/01/17 13:04:04;;;;;;;;;39.25;33.25;;;;;;;;5054223;28;45846;-95
2022/01/17 13:06:29;;;;;;;;;54.50;40.25;;;;;;;;5038160;28;45530;-95
2022/01/17 13:08:55;;;;;;;;;45.25;37.50;;;;;;;;5050544;28;45195;-95
2022/01/17 13:11:24;;;;;;;;;44.75;37.00;;;;;;;;5077540;28;48194;-94
2022/01/17 13:13:56;;;;;;;;;43.50;36.75;;;;;;;;5061535;28;45353;-95
2022/01/17 13:16:21;;;;;;;;;43.25;34.25;;;;;;;;5053939;28;45493;-95
2022/01/17 13:18:47;;;;;;;;;49.50;37.00;;;;;;;;5044275;28;45586;-95
2022/01/17 13:21:12;;;;;;;;;39.25;34.25;;;;;;;;5053131;28;47327;-95
2022/01/17 13:23:44;;;;;;;;;32.25;25.50;;;;;;;;5042287;28;45480;-95
2022/01/17 13:26:13;;;;;;;;;45.50;37.50;;;;;;;;5053954;28;45395;-95
2022/01/17 13:28:39;;;;;;;;;48.00;35.00;;;;;;;;5026242;28;45467;-96
2022/01/17 13:31:18;;;;;;;;;41.25;35.50;;;;;;;;5048177;28;46909;-95
2022/01/17 13:33:43;;;;;;;;;42.25;34.25;;;;;;;;5052080;28;45390;-95
2022/01/17 13:36:09;;;;;;;;;32.75;30.00;;;;;;;;5051137;28;45366;-95
2022/01/17 13:38:34;;;;;;;;;37.25;30.50;;;;;;;;5047646;28;45239;-95
2022/01/17 13:41:02;;;;;;;;;37.00;28.75;;;;;;;;5046972;28;47424;-95
2022/01/17 13:43:28;;;;;;;;;38.75;35.50;;;;;;;;5036883;28;45680;-96
2022/01/17 13:45:54;;;;;;;;;42.25;35.50;;;;;;;;5048257;28;45351;-95
2022/01/17 13:48:25;;;;;;;;;41.25;36.75;;;;;;;;5056764;28;45459;-95
2022/01/17 13:50:55;;;;;;;;;32.33;29.33;;;;;;;;5057444;28;48058;-96
2022/01/17 13:53:25;;;;;;;;;32.33;27.00;;;;;;;;5036055;28;45529;-96
2022/01/17 13:55:52;;;;;;;;;32.33;25.00;;;;;;;;5055396;28;45366;-95
2022/01/17 13:58:18;;;;;;;;;32.00;24.33;;;;;;;;5063605;28;45561;-95
2022/01/17 14:00:45;;;;;;;;;31.67;22.00;;;;;;;;5053970;28;46991;-95
2022/01/17 14:03:14;;;;;;;;;35.67;28.33;;;;;;;;5062165;28;45085;-95
2022/01/17 14:05:41;;;;;;;;;31.33;29.33;;;;;;;;5049493;28;45536;-95
2022/01/17 14:08:11;;;;;;;;;29.00;27.67;;;;;;;;5043364;28;45489;-95
2022/01/17 14:10:46;;;;;;;;;31.50;21.50;;;;;;;;5049962;28;48128;-95
2022/01/17 14:13:11;;;;;;;;;32.67;26.33;;;;;;;;5049861;28;45392;-95
2022/01/17 14:15:36;;;;;;;;;30.00;26.33;;;;;;;;5052293;28;45730;-95
2022/01/17 14:18:09;;;;;;;;;37.67;30.33;;;;;;;;5039519;28;45405;-95
2022/01/17 14:20:37;;;;;;;;;36.67;32.67;;;;;;;;5043293;28;47170;-95
2022/01/17 14:23:03;;;;;;;;;31.67;26.67;;;;;;;;5042829;28;45962;-95
2022/01/17 14:25:28;;;;;;;;;38.00;30.33;;;;;;;;5048123;28;45339;-96
2022/01/17 14:28:04;;;;;;;;;31.33;25.00;;;;;;;;5059210;28;45487;-96
2022/01/17 14:30:31;;;;;;;;;37.00;32.33;;;;;;;;5051441;28;48466;-96
2022/01/17 14:33:08;;;;;;;;;45.75;32.00;;;;;;;;5037563;28;45464;-95
2022/01/17 14:35:34;;;;;;;;;35.67;27.67;;;;;;;;5051928;28;45373;-95
2022/01/17 14:37:59;;;;;;;;;36.33;27.00;;;;;;;;5061430;28;45829;-95
2022/01/17 14:40:30;;;;;;;;;30.33;23.67;;;;;;;;5053373;28;46897;-95
2022/01/17 14:43:06;;;;;;;;;27.67;25.00;;;;;;;;5068669;27;45477;-95